createdAt,value
2022-11-20T00:01:28.988Z,90.61
2022-11-20T00:03:58.662Z,90.48
2022-11-20T00:06:26.804Z,89.91
2022-11-20T00:08:56.422Z,89.25
2022-11-20T00:11:24.761Z,89.22
2022-11-20T00:13:56.433Z,89.07
2022-11-20T00:16:25.805Z,90.75
2022-11-20T00:18:53.260Z,91.44
2022-11-20T00:21:22.495Z,91.55
2022-11-20T00:23:50.391Z,92.39
2022-11-20T00:26:20.416Z,91.76
2022-11-20T00:28:55.537Z,93.30
2022-11-20T00:31:22.883Z,94.96
2022-11-20T00:33:50.411Z,94.68
2022-11-20T00:36:22.684Z,95.35
2022-11-20T00:38:56.756Z,95.81
2022-11-20T00:41:23.844Z,96.43
2022-11-20T00:43:52.337Z,96.48
2022-11-20T00:46:22.051Z,97.31
2022-11-20T00:48:49.674Z,97.48
2022-11-20T00:51:19.477Z,97.97
2022-11-20T00:53:46.938Z,97.10
2022-11-20T00:56:15.860Z,97.08
2022-11-20T00:58:45.213Z,96.97
2022-11-20T01:01:15.379Z,96.75
2022-11-20T01:03:44.868Z,96.54
2022-11-20T01:06:33.179Z,95.67
2022-11-20T01:09:02.741Z,96.12
2022-11-20T01:11:41.265Z,96.34
2022-11-20T01:14:11.835Z,96.11
2022-11-20T01:16:50.492Z,94.95
2022-11-20T01:19:20.749Z,95.16
2022-11-20T01:21:51.547Z,94.55
2022-11-20T01:24:20.495Z,93.60
2022-11-20T01:26:50.616Z,92.20
2022-11-20T01:29:21.084Z,91.98
2022-11-20T01:31:48.393Z,91.52
2022-11-20T01:34:18.615Z,90.63
2022-11-20T01:36:46.031Z,90.58
2022-11-20T01:39:27.066Z,90.54
2022-11-20T01:42:16.283Z,89.92
2022-11-20T01:44:58.958Z,89.89
2022-11-20T01:47:47.498Z,89.47
2022-11-20T01:50:34.188Z,89.41
2022-11-20T01:53:06.140Z,89.54
2022-11-20T01:55:37.837Z,89.47
2022-11-20T01:58:05.727Z,89.50
2022-11-20T02:00:32.772Z,88.71
2022-11-20T02:03:06.614Z,88.64
2022-11-20T02:06:06.193Z,87.92
2022-11-20T02:08:33.995Z,87.40
2022-11-20T02:11:00.916Z,86.64
2022-11-20T02:13:46.063Z,86.34
2022-11-20T02:16:17.560Z,85.62
2022-11-20T02:18:45.775Z,85.17
2022-11-20T02:21:37.592Z,85.72
2022-11-20T02:24:11.417Z,85.69
2022-11-20T02:27:01.607Z,85.43
2022-11-20T02:29:53.497Z,86.20
2022-11-20T02:32:26.735Z,86.08
2022-11-20T02:34:54.004Z,85.60
2022-11-20T02:37:22.520Z,85.63
2022-11-20T02:39:52.352Z,85.37
2022-11-20T02:42:19.799Z,84.79
2022-11-20T02:44:46.750Z,84.77
2022-11-20T02:47:13.714Z,84.44
2022-11-20T02:49:40.709Z,84.68
2022-11-20T02:52:07.657Z,85.42
2022-11-20T02:54:34.829Z,85.25
2022-11-20T02:57:01.720Z,85.72
2022-11-20T02:59:28.719Z,85.34
2022-11-20T03:01:55.569Z,85.70
2022-11-20T03:04:22.473Z,85.49
2022-11-20T03:25:38.228Z,90.08
2022-11-20T03:28:05.338Z,89.67
2022-11-20T03:30:32.214Z,89.32
2022-11-20T03:32:59.899Z,88.53
2022-11-20T03:35:27.119Z,88.28
2022-11-20T03:37:54.268Z,87.73
2022-11-20T03:40:21.297Z,87.46
2022-11-20T03:42:48.218Z,87.95
2022-11-20T03:45:19.320Z,87.49
2022-11-20T03:47:47.158Z,87.32
2022-11-20T03:50:15.368Z,86.89
2022-11-20T03:52:42.427Z,86.91
2022-11-20T03:55:09.664Z,86.73
2022-11-20T03:57:36.709Z,86.76
2022-11-20T04:00:05.254Z,87.50
2022-11-20T04:02:32.683Z,87.34
2022-11-20T04:04:59.517Z,86.57
2022-11-20T04:07:26.577Z,86.46
2022-11-20T04:09:53.724Z,85.97
2022-11-20T04:12:20.692Z,85.83
2022-11-20T04:14:47.528Z,86.02
2022-11-20T04:17:14.385Z,86.23
2022-11-20T04:19:41.313Z,86.70
2022-11-20T04:22:08.241Z,87.04
2022-11-20T04:24:35.180Z,86.70
2022-11-20T04:27:02.005Z,86.73
2022-11-20T04:29:28.867Z,86.40
2022-11-20T04:31:55.762Z,86.39
2022-11-20T04:34:22.634Z,85.67
2022-11-20T04:36:49.497Z,85.31
2022-11-20T04:39:16.528Z,85.01
2022-11-20T04:41:43.547Z,84.82
2022-11-20T04:44:10.615Z,84.67
2022-11-20T04:46:40.744Z,84.73
2022-11-20T04:49:08.661Z,84.75
2022-11-20T04:51:36.169Z,84.27
2022-11-20T04:54:03.077Z,84.14
2022-11-20T04:56:30.033Z,83.72
2022-11-20T04:58:59.417Z,83.87
2022-11-20T05:01:26.339Z,83.84
2022-11-20T05:03:53.495Z,83.46
2022-11-20T05:06:22.122Z,83.32
2022-11-20T05:08:49.333Z,83.21
2022-11-20T05:11:19.706Z,83.68
2022-11-20T05:13:46.676Z,83.85
2022-11-20T05:16:16.788Z,83.81
2022-11-20T05:18:44.463Z,83.42
2022-11-20T05:21:12.215Z,83.08
2022-11-20T05:23:39.819Z,82.92
2022-11-20T05:26:09.267Z,82.54
2022-11-20T05:28:36.146Z,82.71
2022-11-20T05:31:10.631Z,82.58
2022-11-20T05:33:40.367Z,82.86
2022-11-20T05:36:07.855Z,82.96
2022-11-20T05:38:34.814Z,82.41
2022-11-20T05:41:19.714Z,82.61
2022-11-20T05:43:48.049Z,81.98
2022-11-20T05:46:16.671Z,81.73
2022-11-20T05:48:45.010Z,80.91
2022-11-20T05:51:15.982Z,80.52
2022-11-20T05:53:48.117Z,80.04
2022-11-20T05:56:18.484Z,79.42
2022-11-20T05:58:46.565Z,79.97
2022-11-20T06:01:22.612Z,79.94
2022-11-20T06:03:51.740Z,80.29
2022-11-20T06:06:20.541Z,80.04
2022-11-20T06:08:48.080Z,79.96
2022-11-20T06:11:16.471Z,79.47
2022-11-20T06:13:43.968Z,79.32
2022-11-20T06:16:12.543Z,79.21
2022-11-20T06:18:39.914Z,78.82
2022-11-20T06:21:15.429Z,78.50
2022-11-20T06:23:42.965Z,78.15
2022-11-20T06:26:16.103Z,78.31
2022-11-20T06:28:43.192Z,78.02
2022-11-20T06:31:12.998Z,77.82
2022-11-20T06:33:40.260Z,77.63
2022-11-20T06:36:10.828Z,77.42
2022-11-20T06:38:38.764Z,77.58
2022-11-20T06:41:07.823Z,74.41
2022-11-20T06:43:34.691Z,71.49
2022-11-20T06:46:01.601Z,71.02
2022-11-20T06:48:29.731Z,71.26
2022-11-20T06:50:57.435Z,72.70
2022-11-20T06:53:25.196Z,72.36
2022-11-20T06:55:53.105Z,71.21
2022-11-20T06:58:20.039Z,71.18
2022-11-20T07:00:47.092Z,71.00
2022-11-20T07:03:14.303Z,70.16
2022-11-20T07:05:41.409Z,71.03
2022-11-20T07:08:09.174Z,70.36
2022-11-20T07:10:36.611Z,71.13
2022-11-20T07:13:03.538Z,70.74
2022-11-20T07:15:31.005Z,70.71
2022-11-20T07:18:00.880Z,71.24
2022-11-20T07:20:28.033Z,72.41
2022-11-20T07:22:56.793Z,72.28
2022-11-20T07:25:24.444Z,72.06
2022-11-20T07:27:51.273Z,71.71
2022-11-20T07:30:18.840Z,73.58
2022-11-20T07:32:51.831Z,73.52
2022-11-20T07:35:18.669Z,73.45
2022-11-20T07:37:46.785Z,73.11
2022-11-20T07:40:14.744Z,72.85
2022-11-20T07:42:51.826Z,72.68
2022-11-20T07:45:22.578Z,71.74
2022-11-20T07:47:49.474Z,72.34
2022-11-20T07:50:17.420Z,72.79
2022-11-20T07:52:44.361Z,72.94
2022-11-20T07:55:11.859Z,71.22
2022-11-20T07:57:39.196Z,70.48
2022-11-20T08:00:11.764Z,69.54
2022-11-20T08:02:42.397Z,68.97
2022-11-20T08:05:10.916Z,69.76
2022-11-20T08:07:43.542Z,69.13
2022-11-20T08:10:13.064Z,68.92
2022-11-20T08:13:09.855Z,69.68
2022-11-20T08:15:37.795Z,69.18
2022-11-20T08:18:30.004Z,68.74
2022-11-20T08:20:55.790Z,67.97
2022-11-20T08:23:24.065Z,67.79
2022-11-20T08:25:52.148Z,68.51
2022-11-20T08:28:21.610Z,68.08
2022-11-20T08:30:51.165Z,68.37
2022-11-20T08:33:19.210Z,68.43
2022-11-20T08:35:46.507Z,68.74
2022-11-20T08:38:13.421Z,68.41
2022-11-20T08:40:40.222Z,67.77
2022-11-20T08:43:07.045Z,67.31
2022-11-20T08:45:35.189Z,66.85
2022-11-20T08:48:04.076Z,66.32
2022-11-20T08:50:33.473Z,66.85
2022-11-20T08:53:06.776Z,66.57
2022-11-20T08:55:33.679Z,67.41
2022-11-20T08:58:05.313Z,67.96
2022-11-20T09:00:33.450Z,68.80
2022-11-20T09:03:02.183Z,68.36
2022-11-20T09:05:29.307Z,68.12
2022-11-20T09:07:59.970Z,67.63
2022-11-20T09:10:27.917Z,68.41
2022-11-20T09:12:56.106Z,68.11
2022-11-20T09:15:23.932Z,67.17
2022-11-20T09:17:59.388Z,66.85
2022-11-20T09:20:27.381Z,66.75
2022-11-20T09:22:54.587Z,67.02
2022-11-20T09:25:21.602Z,67.50
2022-11-20T09:27:48.878Z,67.41
2022-11-20T09:30:16.545Z,67.64
2022-11-20T09:32:44.260Z,67.23
2022-11-20T09:35:11.872Z,66.97
2022-11-20T09:37:39.143Z,67.11
2022-11-20T09:40:06.878Z,66.78
2022-11-20T09:42:38.521Z,66.62
2022-11-20T09:45:43.968Z,65.60
2022-11-20T09:48:30.475Z,65.43
2022-11-20T09:51:06.172Z,64.95
2022-11-20T09:53:39.037Z,63.86
2022-11-20T09:56:06.180Z,64.56
2022-11-20T09:58:50.170Z,64.39
2022-11-20T10:01:28.230Z,64.75
2022-11-20T10:04:03.920Z,64.97
2022-11-20T10:06:32.729Z,64.21
2022-11-20T10:09:24.799Z,64.16
2022-11-20T10:12:21.488Z,65.33
2022-11-20T10:14:48.176Z,65.17
2022-11-20T10:17:15.111Z,66.02
2022-11-20T10:19:44.929Z,66.02
2022-11-20T10:22:42.013Z,66.01
2022-11-20T10:25:19.272Z,65.46
2022-11-20T10:27:48.800Z,66.54
2022-11-20T10:30:18.940Z,65.67
2022-11-20T10:33:07.311Z,65.43
2022-11-20T10:36:00.958Z,65.95
2022-11-20T10:38:54.152Z,65.00
2022-11-20T10:41:37.231Z,64.83
2022-11-20T10:44:13.125Z,65.09
2022-11-20T10:46:47.051Z,64.85
2022-11-20T10:49:15.837Z,64.48
2022-11-20T10:51:57.786Z,64.95
2022-11-20T10:54:52.446Z,65.42
2022-11-20T10:57:43.334Z,64.79
2022-11-20T11:00:14.818Z,64.50
2022-11-20T11:02:48.682Z,64.58
2022-11-20T11:05:21.450Z,64.49
2022-11-20T11:07:52.328Z,65.08
2022-11-20T11:10:27.992Z,64.27
2022-11-20T11:12:55.336Z,64.22
2022-11-20T11:15:39.076Z,65.02
2022-11-20T11:18:06.364Z,64.75
2022-11-20T11:20:33.504Z,64.65
2022-11-20T11:23:01.351Z,65.00
2022-11-20T11:25:38.657Z,64.95
2022-11-20T11:28:27.217Z,64.86
2022-11-20T11:30:54.728Z,66.14
2022-11-20T11:33:32.752Z,65.93
2022-11-20T11:36:03.725Z,66.46
2022-11-20T11:38:34.014Z,66.30
2022-11-20T11:41:02.070Z,66.52
2022-11-20T11:43:56.665Z,66.58
2022-11-20T11:46:36.885Z,66.99
2022-11-20T11:49:09.745Z,67.12
2022-11-20T11:52:20.648Z,66.96
2022-11-20T11:54:58.182Z,67.32
2022-11-20T11:57:38.085Z,67.68
2022-11-20T12:00:13.234Z,67.10
2022-11-20T12:02:46.286Z,66.75
2022-11-20T12:05:21.364Z,67.48
2022-11-20T12:08:10.996Z,66.63
2022-11-20T12:10:59.438Z,66.67
2022-11-20T12:13:35.232Z,67.21
2022-11-20T12:16:04.076Z,66.86
2022-11-20T12:18:31.855Z,67.04
2022-11-20T12:21:07.489Z,67.31
2022-11-20T12:23:45.166Z,67.59
2022-11-20T12:26:39.112Z,67.60
2022-11-20T12:29:22.919Z,67.38
2022-11-20T12:32:05.573Z,67.64
2022-11-20T12:34:53.595Z,67.66
2022-11-20T12:37:38.814Z,67.64
2022-11-20T12:40:30.123Z,68.05
2022-11-20T12:43:34.546Z,67.63
2022-11-20T12:46:07.273Z,68.22
2022-11-20T12:49:05.309Z,68.21
2022-11-20T12:51:58.000Z,68.37
2022-11-20T12:55:09.315Z,68.81
2022-11-20T12:57:50.433Z,69.23
2022-11-20T13:00:22.293Z,68.65
2022-11-20T13:03:28.073Z,69.26
2022-11-20T13:06:16.744Z,68.89
2022-11-20T13:08:55.635Z,68.48
2022-11-20T13:11:44.158Z,69.04
2022-11-20T13:14:44.950Z,69.40
2022-11-20T13:17:25.799Z,69.03
2022-11-20T13:19:59.840Z,68.93
2022-11-20T13:22:45.751Z,69.13
2022-11-20T13:25:32.994Z,69.34
2022-11-20T13:28:10.067Z,69.22
2022-11-20T13:30:49.716Z,69.45
2022-11-20T13:33:28.705Z,69.54
2022-11-20T13:35:57.962Z,69.15
2022-11-20T13:38:25.575Z,69.53
2022-11-20T13:41:25.528Z,69.50
2022-11-20T13:43:53.424Z,69.27
2022-11-20T13:46:25.538Z,69.44
2022-11-20T13:48:55.315Z,69.23
2022-11-20T13:51:28.086Z,69.55
2022-11-20T13:54:23.335Z,69.42
2022-11-20T13:57:11.688Z,69.49
2022-11-20T13:59:47.367Z,69.96
2022-11-20T14:02:17.212Z,69.64
2022-11-20T14:04:47.985Z,69.39
2022-11-20T14:07:16.278Z,69.54
2022-11-20T14:09:52.964Z,69.64
2022-11-20T14:12:30.340Z,69.59
2022-11-20T14:14:57.205Z,69.70
2022-11-20T14:17:26.495Z,69.90
2022-11-20T14:19:54.275Z,69.76
2022-11-20T14:22:26.699Z,69.58
2022-11-20T14:25:18.114Z,69.57
2022-11-20T14:27:54.056Z,69.67
2022-11-20T14:30:24.903Z,69.75
2022-11-20T14:32:54.266Z,69.79
2022-11-20T14:35:29.268Z,69.78
2022-11-20T14:37:57.283Z,69.70
2022-11-20T14:40:37.074Z,69.93
2022-11-20T14:43:23.862Z,70.10
2022-11-20T14:46:00.477Z,70.50
2022-11-20T14:48:35.365Z,70.54
2022-11-20T14:51:02.357Z,70.54
2022-11-20T14:53:29.239Z,70.81
2022-11-20T14:55:59.251Z,70.83
2022-11-20T14:58:32.902Z,71.39
2022-11-20T15:01:08.242Z,73.85
2022-11-20T15:03:37.861Z,76.53
2022-11-20T15:06:06.268Z,78.54
2022-11-20T15:08:33.102Z,79.86
2022-11-20T15:11:00.086Z,81.84
2022-11-20T15:27:36.652Z,90.46
2022-11-20T15:30:12.902Z,90.50
2022-11-20T15:32:39.809Z,90.45
2022-11-20T15:35:07.175Z,90.54
2022-11-20T15:37:34.063Z,91.39
2022-11-20T15:40:00.879Z,90.81
2022-11-20T15:42:27.771Z,91.69
2022-11-20T15:44:54.571Z,91.40
2022-11-20T15:47:28.922Z,91.17
2022-11-20T15:49:55.825Z,91.45
2022-11-20T15:52:22.961Z,91.89
2022-11-20T15:54:49.794Z,91.83
2022-11-20T15:57:16.747Z,91.64
2022-11-20T15:59:43.586Z,92.02
2022-11-20T16:02:18.727Z,91.33
2022-11-20T16:04:45.904Z,91.15
2022-11-20T16:07:12.839Z,91.34
2022-11-20T16:09:39.725Z,91.48
2022-11-20T16:12:07.131Z,90.74
2022-11-20T16:14:52.580Z,90.22
2022-11-20T16:17:39.393Z,90.65
2022-11-20T16:20:06.741Z,90.95
2022-11-20T16:22:33.485Z,89.87
2022-11-20T16:25:00.322Z,89.45
2022-11-20T16:27:27.241Z,89.12
2022-11-20T16:29:54.062Z,89.11
2022-11-20T16:32:20.933Z,88.14
2022-11-20T16:34:47.741Z,87.03
2022-11-20T16:37:14.589Z,87.17
2022-11-20T16:39:41.397Z,85.09
2022-11-20T16:42:08.169Z,83.78
2022-11-20T16:44:35.624Z,84.31
2022-11-20T16:47:02.544Z,82.39
2022-11-20T16:49:29.331Z,81.48
2022-11-20T16:51:56.259Z,79.42
2022-11-20T16:54:23.508Z,78.45
2022-11-20T16:56:52.061Z,77.93
2022-11-20T16:59:19.328Z,76.80
2022-11-20T17:01:46.320Z,76.61
2022-11-20T17:04:13.310Z,75.16
2022-11-20T17:06:46.651Z,75.09
2022-11-20T17:09:14.163Z,74.50
2022-11-20T17:11:41.162Z,74.03
2022-11-20T17:14:08.391Z,73.38
2022-11-20T17:16:36.628Z,73.56
2022-11-20T17:19:05.331Z,72.89
2022-11-20T17:21:36.077Z,72.45
2022-11-20T17:24:05.437Z,72.26
2022-11-20T17:26:33.253Z,72.76
2022-11-20T17:29:05.951Z,72.04
2022-11-20T17:31:34.485Z,71.52
2022-11-20T17:34:02.367Z,71.12
2022-11-20T17:36:30.450Z,70.45
2022-11-20T17:38:57.970Z,70.62
2022-11-20T17:41:27.191Z,69.75
2022-11-20T17:43:55.660Z,70.64
2022-11-20T17:46:25.440Z,68.75
2022-11-20T17:48:52.704Z,69.13
2022-11-20T17:51:21.921Z,68.51
2022-11-20T17:53:51.413Z,68.33
2022-11-20T17:56:37.687Z,67.27
2022-11-20T17:59:09.103Z,64.99
2022-11-20T18:01:36.095Z,66.09
2022-11-20T18:04:03.842Z,66.90
2022-11-20T18:06:31.486Z,67.78
2022-11-20T18:09:04.277Z,69.22
2022-11-20T18:11:36.199Z,71.02
2022-11-20T18:14:24.561Z,72.68
2022-11-20T18:16:57.745Z,73.23
2022-11-20T18:19:32.233Z,74.50
2022-11-20T18:22:01.897Z,75.29
2022-11-20T18:24:29.024Z,78.19
2022-11-20T18:26:57.747Z,80.74
2022-11-20T18:29:25.642Z,83.26
2022-11-20T18:31:53.364Z,84.41
2022-11-20T18:34:20.504Z,85.99
2022-11-20T18:36:47.435Z,89.76
2022-11-20T18:39:14.956Z,91.84
2022-11-20T18:42:00.916Z,92.34
2022-11-20T18:44:52.064Z,93.13
2022-11-20T18:47:24.918Z,93.42
2022-11-20T18:49:54.602Z,93.63
2022-11-20T18:52:36.700Z,93.08
2022-11-20T18:55:05.197Z,94.51
2022-11-20T18:57:32.934Z,93.06
2022-11-20T19:00:04.829Z,93.62
2022-11-20T19:05:22.358Z,93.43
2022-11-20T19:07:49.224Z,93.29
2022-11-20T19:10:20.348Z,94.92
2022-11-20T19:12:47.374Z,94.93
2022-11-20T19:15:14.477Z,95.79
2022-11-20T19:17:41.406Z,96.73
2022-11-20T19:20:08.675Z,97.38
2022-11-20T19:22:35.565Z,98.77
2022-11-20T19:25:02.335Z,99.03
2022-11-20T19:27:29.480Z,98.62
2022-11-20T19:30:03.259Z,99.30
2022-11-20T19:32:30.517Z,99.91
2022-11-20T19:34:57.402Z,100.00
2022-11-20T19:37:25.330Z,100.00
2022-11-20T19:39:52.232Z,99.83
2022-11-20T19:42:19.080Z,99.31
2022-11-20T19:44:46.100Z,99.59
2022-11-20T19:47:14.720Z,100.00
2022-11-20T19:49:41.972Z,100.00
2022-11-20T19:52:08.846Z,100.00
2022-11-20T19:54:35.649Z,99.44
2022-11-20T19:57:03.089Z,99.81
2022-11-20T19:59:30.233Z,98.83
2022-11-20T20:01:57.224Z,97.86
2022-11-20T20:04:24.480Z,95.65
2022-11-20T20:06:51.447Z,96.88
2022-11-20T20:09:18.696Z,97.00
2022-11-20T20:11:46.982Z,96.74
2022-11-20T20:14:15.847Z,95.90
2022-11-20T20:16:47.800Z,95.76
2022-11-20T20:19:16.052Z,95.66
2022-11-20T20:21:44.112Z,95.25
2022-11-20T20:24:11.781Z,95.81
2022-11-20T20:26:38.674Z,96.29
2022-11-20T20:29:05.500Z,96.52
2022-11-20T20:31:33.854Z,96.69
2022-11-20T20:34:03.414Z,96.58
2022-11-20T20:36:30.362Z,97.90
2022-11-20T20:39:02.986Z,98.99
2022-11-20T20:41:30.940Z,97.76
2022-11-20T20:44:16.525Z,97.99
2022-11-20T20:46:43.932Z,98.58
2022-11-20T20:49:10.932Z,100.00
2022-11-20T20:51:37.843Z,99.38
2022-11-20T20:54:05.210Z,98.93
2022-11-20T20:56:32.327Z,99.68
2022-11-20T20:58:59.150Z,100.00
2022-11-20T21:01:28.922Z,99.89
2022-11-20T21:03:57.559Z,99.72
2022-11-20T21:06:25.594Z,100.00
2022-11-20T21:08:52.710Z,99.61
2022-11-20T21:11:21.152Z,99.90
2022-11-20T21:13:49.211Z,99.94
2022-11-20T21:16:18.593Z,100.00
2022-11-20T21:18:45.918Z,99.79
2022-11-20T21:21:33.337Z,100.00
2022-11-20T21:24:00.697Z,100.00
2022-11-20T21:26:27.597Z,100.00
2022-11-20T21:28:54.568Z,100.00
2022-11-20T21:31:23.603Z,99.68
2022-11-20T21:33:52.534Z,99.37
2022-11-20T21:36:24.837Z,100.00
2022-11-20T21:38:54.693Z,99.47
2022-11-20T21:41:22.357Z,99.80
2022-11-20T21:44:15.995Z,99.61
2022-11-20T21:46:41.036Z,100.00
2022-11-20T21:49:08.717Z,100.00
2022-11-20T21:51:36.155Z,100.00
2022-11-20T21:54:03.211Z,100.00
2022-11-20T21:56:30.092Z,100.00
2022-11-20T21:58:56.969Z,100.00
2022-11-20T22:01:26.487Z,100.00
2022-11-20T22:03:59.534Z,100.00
2022-11-20T22:06:30.360Z,100.00
2022-11-20T22:08:57.211Z,100.00
2022-11-20T22:11:24.109Z,100.00
2022-11-20T22:14:09.580Z,100.00
2022-11-20T22:16:37.713Z,100.00
2022-11-20T22:19:05.612Z,100.00
2022-11-20T22:21:33.319Z,100.00
2022-11-20T22:24:00.527Z,100.00
2022-11-20T22:26:29.682Z,100.00
2022-11-20T22:28:58.570Z,100.00
2022-11-20T22:31:28.027Z,100.00
2022-11-20T22:33:55.804Z,100.00
2022-11-20T22:36:25.106Z,100.00
2022-11-20T22:38:52.181Z,100.00
2022-11-20T22:41:27.412Z,100.00
2022-11-20T22:44:06.611Z,100.00
2022-11-20T22:46:35.355Z,100.00
2022-11-20T22:49:05.051Z,100.00
2022-11-20T22:51:34.283Z,100.00
2022-11-20T22:54:03.719Z,100.00
2022-11-20T22:56:32.377Z,100.00
2022-11-20T22:58:59.400Z,100.00
2022-11-20T23:01:34.825Z,100.00
2022-11-20T23:04:04.178Z,100.00
2022-11-20T23:06:34.458Z,100.00
2022-11-20T23:09:02.545Z,100.00
2022-11-20T23:11:31.166Z,100.00
2022-11-20T23:14:00.306Z,100.00
2022-11-20T23:16:29.284Z,100.00
2022-11-20T23:19:07.643Z,100.00
2022-11-20T23:21:36.980Z,100.00
2022-11-20T23:24:04.634Z,100.00
2022-11-20T23:26:35.225Z,100.00
2022-11-20T23:29:02.202Z,100.00
2022-11-20T23:31:31.172Z,100.00
2022-11-20T23:33:59.180Z,100.00
2022-11-20T23:36:26.280Z,100.00
2022-11-20T23:38:53.181Z,100.00
2022-11-20T23:41:19.996Z,100.00
2022-11-20T23:43:46.769Z,100.00
2022-11-20T23:46:16.487Z,100.00
2022-11-20T23:48:45.225Z,100.00
2022-11-20T23:51:13.341Z,100.00
2022-11-20T23:53:40.603Z,100.00
2022-11-20T23:56:08.115Z,100.00
2022-11-20T23:58:37.999Z,100.00
